Time;durP1;ratioP1;P1;durP2;ratioP2;P2;SDS_P1;SDS_P2;PMS_P1;PMS_P2;Temp;Humidity;BMP_temperature;BMP_pressure;BME280_temperature;BME280_humidity;BME280_pressure;Samples;Min_cycle;Max_cycle;Signal;HPM_P1;HPM_P2
2022/07/21 00:00:24;;;;;;;0.00;0.00;;;26.10;93.00;226.50;231333.00;;;;5091477;28;20217;-70
2022/07/21 00:02:53;;;;;;;0.00;0.00;;;26.00;93.10;226.50;231333.00;;;;5085165;28;20200;-71
2022/07/21 00:05:23;;;;;;;0.00;0.00;;;26.10;93.30;226.50;231333.00;;;;5091514;28;20217;-70
2022/07/21 00:07:52;;;;;;;0.00;0.00;;;26.00;93.50;226.50;231333.00;;;;5090093;28;20216;-70
2022/07/21 00:10:23;;;;;;;0.00;0.00;;;26.00;93.70;226.50;231333.00;;;;5091984;28;20205;-72
2022/07/21 00:12:52;;;;;;;0.00;0.00;;;25.90;93.90;226.50;231333.00;;;;5092043;28;20193;-70
2022/07/21 00:15:23;;;;;;;0.00;0.00;;;25.90;93.90;226.50;231333.00;;;;5092154;28;20197;-70
2022/07/21 00:17:52;;;;;;;0.00;0.00;;;25.90;94.10;226.50;231333.00;;;;5090840;28;20682;-70
2022/07/21 00:20:22;;;;;;;0.00;0.00;;;25.90;94.20;226.50;231333.00;;;;5090919;28;20712;-72
2022/07/21 00:22:50;;;;;;;0.00;0.00;;;25.90;94.30;226.50;231333.00;;;;5092079;28;20189;-70
2022/07/21 00:25:18;;;;;;;0.00;0.00;;;25.90;94.40;226.50;231333.00;;;;5091857;28;20225;-70
2022/07/21 00:27:47;;;;;;;0.00;0.00;;;25.80;94.50;226.50;231333.00;;;;5091290;28;20691;-69
2022/07/21 00:30:15;;;;;;;0.00;0.00;;;25.80;94.50;226.50;231333.00;;;;5071969;28;20220;-70
2022/07/21 00:32:45;;;;;;;0.00;0.00;;;25.80;94.60;226.50;231333.00;;;;5072100;28;20193;-70
2022/07/21 00:35:15;;;;;;;0.00;0.00;;;25.80;94.70;226.50;231333.00;;;;5087892;28;20643;-70
2022/07/21 00:37:44;;;;;;;0.00;0.00;;;25.80;94.70;226.50;231333.00;;;;5090745;28;20185;-70
2022/07/21 00:40:15;;;;;;;0.00;0.00;;;25.80;94.70;226.50;231333.00;;;;5091866;28;20719;-70
2022/07/21 00:42:44;;;;;;;0.00;0.00;;;25.80;94.80;226.50;231333.00;;;;5091956;28;20276;-71
2022/07/21 00:45:13;;;;;;;0.00;0.00;;;25.90;94.80;226.50;231333.00;;;;5091694;28;20727;-72
2022/07/21 00:47:43;;;;;;;0.00;0.00;;;25.90;94.70;226.50;231333.00;;;;5088983;28;20193;-70
2022/07/21 00:50:20;;;;;;;0.00;0.00;;;25.90;94.80;226.50;231333.00;;;;5091145;28;20316;-71
2022/07/21 00:52:49;;;;;;;0.00;0.00;;;25.90;94.80;226.50;231333.00;;;;5091753;28;20191;-70
2022/07/21 00:55:21;;;;;;;0.00;0.00;;;25.90;94.80;226.50;231333.00;;;;5091504;28;20207;-72
2022/07/21 00:57:49;;;;;;;0.00;0.00;;;26.00;94.80;226.50;231333.00;;;;5082743;28;20563;-70
2022/07/21 01:00:23;;;;;;;0.00;0.00;;;26.00;94.70;226.50;231333.00;;;;5090822;28;20762;-70
2022/07/21 01:02:52;;;;;;;0.00;0.00;;;26.10;94.60;226.50;231333.00;;;;5091867;28;20189;-70
2022/07/21 01:05:22;;;;;;;0.00;0.00;;;26.20;94.60;226.50;231333.00;;;;5084412;28;20720;-71
2022/07/21 01:07:53;;;;;;;0.00;0.00;;;26.30;94.60;226.50;231333.00;;;;5087783;28;20193;-71
2022/07/21 01:10:24;;;;;;;0.00;0.00;;;26.40;94.50;226.50;231333.00;;;;5090033;28;20591;-70
2022/07/21 01:12:53;;;;;;;0.00;0.00;;;26.40;94.40;226.50;231333.00;;;;5085856;28;20201;-71
2022/07/21 01:15:22;;;;;;;0.00;0.00;;;26.40;94.40;226.50;231333.00;;;;5091346;28;20193;-71
2022/07/21 01:17:51;;;;;;;0.00;0.00;;;26.40;94.10;226.50;231333.00;;;;5088871;28;20200;-71
2022/07/21 01:20:24;;;;;;;0.00;0.00;;;26.20;94.50;226.50;231333.00;;;;5083858;28;20553;-70
2022/07/21 01:22:56;;;;;;;0.00;0.00;;;26.00;94.80;226.50;231333.00;;;;5090554;28;20192;-70
2022/07/21 01:25:24;;;;;;;0.00;0.00;;;26.00;94.90;226.50;231333.00;;;;5071733;28;20701;-71
2022/07/21 01:27:53;;;;;;;0.00;0.00;;;25.80;95.10;226.50;231333.00;;;;5090172;28;20189;-71
2022/07/21 01:30:21;;;;;;;0.00;0.00;;;25.80;95.30;226.50;231333.00;;;;5090612;28;20209;-70
2022/07/21 01:32:49;;;;;;;0.00;0.00;;;25.70;95.40;226.50;231333.00;;;;5090991;28;20193;-71
2022/07/21 01:35:18;;;;;;;0.00;0.00;;;25.60;95.60;226.50;231333.00;;;;5091172;28;20197;-71
2022/07/21 01:37:48;;;;;;;0.00;0.00;;;25.60;95.60;226.50;231333.00;;;;5092940;28;20204;-70
2022/07/21 01:43:06;;;;;;;0.00;0.00;;;25.50;95.80;226.50;231333.00;;;;5094836;28;20192;-70
2022/07/21 01:45:40;;;;;;;0.00;0.00;;;25.40;95.90;226.50;231333.00;;;;5094669;28;20216;-71
2022/07/21 01:48:09;;;;;;;0.00;0.00;;;25.40;96.10;226.50;231333.00;;;;5094767;28;20204;-71
2022/07/21 01:50:38;;;;;;;0.00;0.00;;;25.20;96.30;226.50;231333.00;;;;5094500;28;20606;-70
2022/07/21 01:53:06;;;;;;;0.00;0.00;;;25.10;96.50;226.50;231333.00;;;;5094238;28;20267;-70
2022/07/21 01:55:35;;;;;;;0.00;0.00;;;25.10;96.60;226.50;231333.00;;;;5094644;28;20208;-70
2022/07/21 01:58:03;;;;;;;0.00;0.00;;;25.10;96.80;226.50;231333.00;;;;5094384;28;20564;-71
2022/07/21 02:00:31;;;;;;;0.00;0.00;;;25.10;96.90;226.50;231333.00;;;;5075536;28;20307;-71
2022/07/21 02:02:59;;;;;;;0.00;0.00;;;25.10;97.10;226.50;231333.00;;;;5088041;28;20205;-70
2022/07/21 02:05:27;;;;;;;0.00;0.00;;;25.00;97.20;226.50;231333.00;;;;5092658;28;20239;-71
2022/07/21 02:07:55;;;;;;;0.00;0.00;;;25.00;97.30;226.50;231333.00;;;;5076330;28;20189;-70
2022/07/21 02:10:23;;;;;;;0.00;0.00;;;24.90;97.60;226.50;231333.00;;;;5094157;28;20707;-70
2022/07/21 02:12:53;;;;;;;0.00;0.00;;;24.80;97.70;226.50;231333.00;;;;5093167;28;20197;-70
2022/07/21 02:15:21;;;;;;;0.00;0.00;;;24.70;97.90;226.50;231333.00;;;;5094988;28;20193;-70
2022/07/21 02:17:49;;;;;;;0.00;0.00;;;24.70;98.30;226.50;231333.00;;;;5094165;28;20220;-71
2022/07/21 02:20:17;;;;;;;0.00;0.00;;;24.70;98.10;226.50;231333.00;;;;5093853;28;20215;-70
2022/07/21 02:22:45;;;;;;;0.00;0.00;;;24.80;98.10;226.50;231333.00;;;;5094013;28;20216;-69
2022/07/21 02:25:14;;;;;;;0.00;0.00;;;24.70;98.20;226.50;231333.00;;;;5094368;28;20199;-69
2022/07/21 02:27:42;;;;;;;0.00;0.00;;;24.60;98.40;226.50;231333.00;;;;5094177;28;20189;-69
2022/07/21 02:30:14;;;;;;;0.00;0.00;;;24.50;98.60;226.50;231333.00;;;;5074946;28;20236;-69
2022/07/21 02:32:42;;;;;;;0.00;0.00;;;24.50;98.80;226.50;231333.00;;;;5094187;28;20213;-69
2022/07/21 02:35:10;;;;;;;0.00;0.00;;;24.50;98.90;226.50;231333.00;;;;5092938;28;20196;-69
2022/07/21 02:37:39;;;;;;;0.00;0.00;;;24.60;99.00;226.50;231333.00;;;;5084341;28;20243;-69
2022/07/21 02:40:09;;;;;;;0.00;0.00;;;24.40;99.20;226.50;231333.00;;;;5091246;28;20225;-69
2022/07/21 02:42:37;;;;;;;0.00;0.00;;;24.40;99.40;226.50;231333.00;;;;5094204;28;20203;-69
2022/07/21 02:45:07;;;;;;;0.00;0.00;;;24.40;99.60;226.50;231333.00;;;;5081123;28;20248;-70
2022/07/21 02:47:54;;;;;;;0.00;0.00;;;24.30;99.80;226.50;231333.00;;;;5072764;28;20201;-69
2022/07/21 02:50:24;;;;;;;0.00;0.00;;;24.30;99.90;226.50;168844.00;;;;5091992;28;20227;-69
2022/07/21 02:52:57;;;;;;;0.00;0.00;;;24.30;99.90;226.50;231333.00;;;;5094086;28;20202;-69
2022/07/21 02:55:25;;;;;;;0.00;0.00;;;24.40;99.90;226.50;231333.00;;;;5088148;28;20618;-69
2022/07/21 02:58:05;;;;;;;0.00;0.00;;;24.40;99.90;226.50;231333.00;;;;5092762;28;20203;-69
2022/07/21 03:00:35;;;;;;;0.00;0.00;;;24.40;99.90;226.50;231333.00;;;;5092827;28;20232;-69
2022/07/21 03:03:05;;;;;;;0.00;0.00;;;24.30;99.90;226.50;231333.00;;;;5093255;28;21395;-70
2022/07/21 03:05:34;;;;;;;0.00;0.00;;;24.30;99.90;226.50;231333.00;;;;5093506;28;20208;-70
2022/07/21 03:08:03;;;;;;;0.00;0.00;;;24.20;99.90;226.50;231333.00;;;;5093351;28;20201;-69
2022/07/21 03:10:31;;;;;;;0.00;0.00;;;24.20;99.90;226.50;231333.00;;;;5092488;28;20217;-69
2022/07/21 03:12:59;;;;;;;0.00;0.00;;;24.20;99.90;226.50;231333.00;;;;5073264;28;20669;-68
2022/07/21 03:15:27;;;;;;;0.00;0.00;;;24.20;99.90;226.50;231333.00;;;;5087130;28;20201;-68
2022/07/21 03:17:56;;;;;;;0.00;0.00;;;24.20;99.90;226.50;231333.00;;;;5093154;28;20551;-68
2022/07/21 03:20:26;;;;;;;0.00;0.00;;;24.10;99.90;226.50;231333.00;;;;5093094;28;20219;-69
2022/07/21 03:22:54;;;;;;;0.00;0.00;;;24.10;99.90;226.50;231333.00;;;;5093367;28;20193;-69
2022/07/21 03:25:22;;;;;;;0.00;0.00;;;24.00;99.90;226.50;231333.00;;;;5086754;28;20201;-69
2022/07/21 03:27:51;;;;;;;0.00;0.00;;;24.10;99.90;226.50;231333.00;;;;5081584;28;20270;-70
2022/07/21 03:30:19;;;;;;;0.00;0.00;;;24.20;99.90;226.50;231333.00;;;;5108190;28;20217;-69
2022/07/21 03:32:47;;;;;;;0.00;0.00;;;24.20;99.90;226.50;231333.00;;;;5097725;28;20189;-68
2022/07/21 03:35:15;;;;;;;0.00;0.00;;;24.30;99.90;226.50;231333.00;;;;5099794;28;20198;-68
2022/07/21 03:37:49;;;;;;;0.00;0.00;;;24.30;99.90;226.50;231333.00;;;;5095319;28;20210;-69
2022/07/21 03:40:22;;;;;;;0.00;0.00;;;24.30;99.90;226.50;231333.00;;;;5104353;28;20216;-72
2022/07/21 03:42:51;;;;;;;0.00;0.00;;;24.20;99.90;226.50;231333.00;;;;5092403;28;20204;-69
2022/07/21 03:45:21;;;;;;;0.00;0.00;;;24.30;99.90;226.50;231333.00;;;;5080318;28;20189;-70
2022/07/21 03:47:49;;;;;;;0.00;0.00;;;24.40;99.90;226.50;231333.00;;;;5091741;28;20223;-70
2022/07/21 03:50:17;;;;;;;0.00;0.00;;;24.60;99.90;226.50;231333.00;;;;5091777;28;20209;-69
2022/07/21 03:52:48;;;;;;;0.00;0.00;;;24.40;99.90;226.50;231333.00;;;;5092525;28;20223;-70
2022/07/21 03:55:17;;;;;;;0.00;0.00;;;24.20;99.90;226.50;231333.00;;;;5092540;28;20679;-70
2022/07/21 03:57:49;;;;;;;0.00;0.00;;;24.10;99.90;226.50;231333.00;;;;5090962;28;20197;-69
2022/07/21 04:00:20;;;;;;;0.00;0.00;;;24.00;99.90;226.50;231333.00;;;;5090851;28;20211;-69
2022/07/21 04:02:49;;;;;;;0.00;0.00;;;23.90;99.90;226.50;231333.00;;;;5092313;28;20203;-68
2022/07/21 04:05:18;;;;;;;0.00;0.00;;;23.80;99.90;226.50;231333.00;;;;5091236;28;20189;-68
2022/07/21 04:07:51;;;;;;;0.00;0.00;;;23.80;99.90;226.50;231333.00;;;;5090848;28;20224;-69
2022/07/21 04:10:22;;;;;;;0.00;0.00;;;23.70;99.90;226.50;231333.00;;;;5088334;28;20209;-70
2022/07/21 04:12:50;;;;;;;0.00;0.00;;;23.80;99.90;226.50;231333.00;;;;5090425;28;20683;-69
2022/07/21 04:15:19;;;;;;;0.00;0.00;;;23.80;99.90;226.50;231333.00;;;;5090193;28;20262;-69
2022/07/21 04:17:48;;;;;;;0.00;0.00;;;23.50;99.90;226.50;231333.00;;;;5089729;28;20225;-69
2022/07/21 04:20:17;;;;;;;0.00;0.00;;;23.40;99.90;226.50;231333.00;;;;5091759;28;20224;-69
2022/07/21 04:22:49;;;;;;;0.00;0.00;;;23.50;99.90;22.80;94250.00;;;;5091381;28;20204;-69
2022/07/21 04:25:19;;;;;;;0.00;0.00;;;23.60;99.90;22.80;93636.00;;;;5092057;28;20554;-69
2022/07/21 04:27:49;;;;;;;0.00;0.00;;;23.40;99.90;22.70;93617.00;;;;5091233;28;20217;-68
2022/07/21 04:30:20;;;;;;;0.00;0.00;;;23.20;99.90;22.50;94121.00;;;;5089452;28;20220;-68
2022/07/21 04:32:48;;;;;;;0.00;0.00;;;23.20;99.90;22.30;94600.00;;;;5090429;28;20571;-71
2022/07/21 04:35:17;;;;;;;0.00;0.00;;;23.30;99.90;22.10;94798.00;;;;5091232;28;20563;-69
2022/07/21 04:37:45;;;;;;;0.00;0.00;;;22.90;99.90;226.50;167916.00;;;;5089762;28;20197;-70
2022/07/21 04:40:16;;;;;;;0.00;0.00;;;22.80;99.90;226.50;231333.00;;;;5080996;28;20581;-69
2022/07/21 04:42:45;;;;;;;0.00;0.00;;;22.70;99.90;226.50;231333.00;;;;5084867;28;20659;-69
2022/07/21 04:45:16;;;;;;;0.00;0.00;;;22.80;99.90;226.50;231333.00;;;;5080428;28;20315;-69
2022/07/21 04:47:46;;;;;;;0.00;0.00;;;22.90;99.90;22.00;96530.00;;;;5089242;28;20707;-69
2022/07/21 04:50:15;;;;;;;0.00;0.00;;;22.90;99.90;22.40;97104.00;;;;5090156;28;20224;-69
2022/07/21 04:52:44;;;;;;;0.00;0.00;;;23.00;99.90;22.10;96873.00;;;;5090550;28;20201;-69
2022/07/21 04:55:14;;;;;;;0.00;0.00;;;23.00;99.90;22.10;96857.00;;;;5091293;28;20216;-69
2022/07/21 04:57:47;;;;;;;0.00;0.00;;;22.90;99.90;22.30;97025.00;;;;5090621;28;20558;-69
2022/07/21 05:00:18;;;;;;;0.00;0.00;;;22.90;99.90;22.00;96868.00;;;;5091019;28;20213;-70
2022/07/21 05:02:48;;;;;;;0.00;0.00;;;22.60;99.90;21.90;96865.00;;;;5089763;28;20196;-70
2022/07/21 05:05:16;;;;;;;0.00;0.00;;;22.60;99.90;21.90;96860.00;;;;5091588;28;20199;-69
2022/07/21 05:07:44;;;;;;;0.00;0.00;;;22.70;99.90;21.90;96876.00;;;;5089343;28;20232;-70
2022/07/21 05:10:16;;;;;;;0.00;0.00;;;22.70;99.90;21.90;96869.00;;;;5082280;28;20233;-70
2022/07/21 05:12:44;;;;;;;0.00;0.00;;;22.70;99.90;21.90;96869.00;;;;5074461;28;20213;-70
2022/07/21 05:15:13;;;;;;;0.00;0.00;;;22.60;99.90;21.90;96889.00;;;;5076293;28;20190;-69
2022/07/21 05:17:42;;;;;;;0.00;0.00;;;22.60;99.90;22.00;96880.00;;;;5088123;28;20200;-70
2022/07/21 05:20:11;;;;;;;0.00;0.00;;;22.70;99.90;22.00;96903.00;;;;5095471;28;20236;-71
2022/07/21 05:22:40;;;;;;;0.00;0.00;;;22.70;99.90;22.20;97171.00;;;;5095215;28;20394;-70
2022/07/21 05:25:09;;;;;;;0.00;0.00;;;22.70;99.90;21.90;96895.00;;;;5094865;28;20197;-70
2022/07/21 05:27:38;;;;;;;0.00;0.00;;;22.60;99.90;21.90;96894.00;;;;5073265;28;20224;-70
2022/07/21 05:30:08;;;;;;;0.00;0.00;;;22.60;99.90;22.20;97177.00;;;;5093189;28;20229;-70
2022/07/21 05:32:36;;;;;;;0.00;0.00;;;22.70;99.90;21.90;96930.00;;;;5095253;28;20197;-70
2022/07/21 05:35:11;;;;;;;0.00;0.00;;;22.70;99.90;22.20;97302.00;;;;5087571;28;20258;-71
2022/07/21 05:37:40;;;;;;;0.00;0.00;;;22.70;99.90;22.30;97277.00;;;;5095039;28;20239;-70
2022/07/21 05:40:10;;;;;;;0.00;0.00;;;22.70;99.90;22.30;97276.00;;;;5094972;28;20216;-70
2022/07/21 05:42:40;;;;;;;0.00;0.00;;;22.80;99.90;22.40;97176.00;;;;5084019;28;20205;-70
2022/07/21 05:45:10;;;;;;;0.00;0.00;;;22.90;99.90;22.20;96917.00;;;;5074752;28;20205;-71
2022/07/21 05:47:38;;;;;;;0.00;0.00;;;23.00;99.90;22.30;96915.00;;;;5077752;28;20216;-70
2022/07/21 05:50:08;;;;;;;0.00;0.00;;;23.00;99.90;22.20;96909.00;;;;5092523;28;20578;-69
2022/07/21 05:52:36;;;;;;;0.00;0.00;;;23.00;99.90;22.30;96925.00;;;;5079073;28;20202;-70
2022/07/21 05:55:06;;;;;;;0.00;0.00;;;23.00;99.90;22.50;97203.00;;;;5083323;28;20543;-70
2022/07/21 05:57:34;;;;;;;0.00;0.00;;;23.00;99.90;22.50;96961.00;;;;5076105;28;20192;-70
2022/07/21 06:00:06;;;;;;;0.00;0.00;;;23.20;99.90;22.50;96938.00;;;;5090315;28;20217;-70
2022/07/21 06:02:35;;;;;;;0.00;0.00;;;23.30;99.90;22.60;97173.00;;;;5087090;28;20676;-71
2022/07/21 06:05:03;;;;;;;0.00;0.00;;;23.10;99.90;22.40;96939.00;;;;5094902;28;20216;-70
2022/07/21 06:07:31;;;;;;;0.00;0.00;;;23.10;99.90;22.60;97213.00;;;;5095566;28;20213;-71
2022/07/21 06:10:00;;;;;;;0.00;0.00;;;23.20;99.90;22.40;96934.00;;;;5075294;28;20206;-70
2022/07/21 06:12:28;;;;;;;0.00;0.00;;;23.10;99.90;22.50;96944.00;;;;5074476;28;20193;-70
2022/07/21 06:14:56;;;;;;;0.00;0.00;;;23.20;99.90;22.50;96970.00;;;;5074344;28;20196;-70
2022/07/21 06:17:26;;;;;;;0.00;0.00;;;23.20;99.90;22.50;96917.00;;;;5075674;28;20197;-71
2022/07/21 06:19:54;;;;;;;0.00;0.00;;;23.20;99.90;22.50;96908.00;;;;5076267;28;20258;-70
2022/07/21 06:22:22;;;;;;;0.00;0.00;;;23.20;99.90;22.50;96935.00;;;;5094515;28;20668;-70
2022/07/21 06:24:50;;;;;;;0.00;0.00;;;23.20;99.90;22.50;96912.00;;;;5094795;28;20227;-70
2022/07/21 06:27:18;;;;;;;0.00;0.00;;;23.20;99.90;22.50;96931.00;;;;5076473;28;20197;-71
2022/07/21 06:29:46;;;;;;;0.00;0.00;;;23.20;99.90;22.50;96923.00;;;;5094200;28;20296;-70
2022/07/21 06:32:14;;;;;;;0.00;0.00;;;23.20;99.90;22.50;96900.00;;;;5095175;28;20660;-70
2022/07/21 06:34:47;;;;;;;0.00;0.00;;;23.20;99.90;22.60;96895.00;;;;5094056;28;20193;-70
2022/07/21 06:37:15;;;;;;;0.00;0.00;;;23.30;99.90;22.60;96900.00;;;;5094316;28;20193;-70
2022/07/21 06:39:43;;;;;;;0.00;0.00;;;23.20;99.90;22.60;97063.00;;;;5093998;28;20217;-70
2022/07/21 06:42:11;;;;;;;0.00;0.00;;;23.20;99.90;22.60;96908.00;;;;5094003;28;20204;-70
2022/07/21 06:44:39;;;;;;;0.00;0.00;;;23.30;99.90;22.50;97020.00;;;;5093720;28;20185;-70
2022/07/21 06:47:07;;;;;;;0.00;0.00;;;23.20;99.90;22.40;96884.00;;;;5092601;28;20292;-70
2022/07/21 06:49:35;;;;;;;0.00;0.00;;;23.20;99.90;22.50;96895.00;;;;5092216;28;20220;-69
2022/07/21 06:52:05;;;;;;;0.00;0.00;;;23.20;99.90;22.60;96896.00;;;;5093670;28;20747;-70
2022/07/21 06:54:33;;;;;;;0.00;0.00;;;23.30;99.90;22.70;96922.00;;;;5093824;28;20205;-69
2022/07/21 06:57:01;;;;;;;0.00;0.00;;;23.40;99.90;22.80;96905.00;;;;5093322;28;20579;-69
2022/07/21 06:59:29;;;;;;;0.00;0.00;;;23.50;99.90;22.80;96937.00;;;;5093411;28;20707;-70
2022/07/21 07:01:59;;;;;;;0.00;0.00;;;23.50;99.90;22.80;96930.00;;;;5093656;28;20193;-69
2022/07/21 07:04:27;;;;;;;0.00;0.00;;;23.50;99.90;22.80;97078.00;;;;5093703;28;20201;-69
2022/07/21 07:06:55;;;;;;;0.00;0.00;;;23.50;99.90;22.60;96935.00;;;;5093473;28;20189;-70
2022/07/21 07:09:24;;;;;;;0.00;0.00;;;23.30;99.90;22.60;97008.00;;;;5092923;28;20228;-70
2022/07/21 07:11:54;;;;;;;0.00;0.00;;;23.20;99.90;22.40;96985.00;;;;5086487;28;20192;-70
2022/07/21 07:14:41;;;;;;;0.00;0.00;;;23.10;99.90;22.30;97000.00;;;;5088187;28;20202;-70
2022/07/21 07:17:10;;;;;;;0.00;0.00;;;23.00;99.90;22.30;97007.00;;;;5083467;28;20194;-70
2022/07/21 07:19:38;;;;;;;0.00;0.00;;;23.00;99.90;22.40;96943.00;;;;5082524;28;20316;-69
2022/07/21 07:22:06;;;;;;;0.00;0.00;;;23.10;99.90;22.50;97019.00;;;;5093195;28;20205;-69
2022/07/21 07:24:36;;;;;;;0.00;0.00;;;23.20;99.90;22.50;97010.00;;;;5093352;28;20201;-70
2022/07/21 07:27:04;;;;;;;0.00;0.00;;;23.20;99.90;22.50;97012.00;;;;5092922;28;20193;-70
2022/07/21 07:29:32;;;;;;;0.00;0.00;;;23.20;99.90;22.50;97013.00;;;;5092854;28;20597;-70
2022/07/21 07:32:00;;;;;;;0.00;0.00;;;23.20;99.90;22.50;97021.00;;;;5092790;28;20625;-70
2022/07/21 07:34:29;;;;;;;0.00;0.00;;;23.20;99.90;22.60;97034.00;;;;5092315;28;20224;-69
2022/07/21 07:36:57;;;;;;;0.00;0.00;;;23.30;99.90;22.60;97039.00;;;;5092977;28;20216;-70
2022/07/21 07:39:25;;;;;;;0.00;0.00;;;23.30;99.90;22.50;97027.00;;;;5093363;28;20221;-70
2022/07/21 07:41:55;;;;;;;0.00;0.00;;;23.20;99.90;22.40;97043.00;;;;5091259;28;20205;-70
2022/07/21 07:44:24;;;;;;;0.00;0.00;;;23.10;99.90;22.30;97028.00;;;;5093065;28;20193;-69
2022/07/21 07:46:52;;;;;;;0.00;0.00;;;23.00;99.90;22.30;97034.00;;;;5092238;28;20264;-70
2022/07/21 07:49:20;;;;;;;0.00;0.00;;;23.00;99.90;22.20;97059.00;;;;5092260;28;20229;-72
2022/07/21 07:51:48;;;;;;;0.00;0.00;;;22.90;99.90;22.20;97069.00;;;;5092578;28;20201;-70
2022/07/21 07:54:16;;;;;;;0.00;0.00;;;22.90;99.90;22.20;97130.00;;;;5092760;28;20588;-70
2022/07/21 07:56:44;;;;;;;0.00;0.00;;;22.80;99.90;22.10;97090.00;;;;5092206;28;20200;-71
2022/07/21 07:59:13;;;;;;;0.00;0.00;;;22.80;99.90;22.00;97061.00;;;;5092398;28;20209;-70
2022/07/21 08:01:42;;;;;;;0.00;0.00;;;22.70;99.90;21.90;97075.00;;;;5092064;28;20181;-70
2022/07/21 08:04:10;;;;;;;0.00;0.00;;;22.60;99.90;21.80;97099.00;;;;5092559;28;20573;-70
2022/07/21 08:06:38;;;;;;;0.00;0.00;;;22.50;99.90;21.60;97089.00;;;;5092383;28;20190;-70
2022/07/21 08:09:06;;;;;;;0.00;0.00;;;22.40;99.90;21.60;97096.00;;;;5091675;28;20544;-70
2022/07/21 08:11:34;;;;;;;0.00;0.00;;;22.30;99.90;21.50;97096.00;;;;5092195;28;20197;-70
2022/07/21 08:14:02;;;;;;;0.00;0.00;;;22.30;99.90;21.50;97117.00;;;;5093179;28;20195;-70
2022/07/21 08:16:31;;;;;;;0.00;0.00;;;22.20;99.90;21.50;97117.00;;;;5094175;28;20185;-70
2022/07/21 08:18:59;;;;;;;0.00;0.00;;;22.20;99.90;21.50;97126.00;;;;5094467;28;20617;-70
2022/07/21 08:21:30;;;;;;;0.00;0.00;;;22.10;99.90;21.50;97152.00;;;;5092468;28;20208;-70
2022/07/21 08:24:18;;;;;;;0.00;0.00;;;22.20;99.90;21.60;97181.00;;;;5091682;28;20243;-70
2022/07/21 08:26:46;;;;;;;0.00;0.00;;;22.20;99.90;21.40;97057.00;;;;5091966;28;20181;-70
2022/07/21 08:29:14;;;;;;;0.00;0.00;;;22.20;99.90;21.50;97057.00;;;;5091491;28;20231;-70
2022/07/21 08:31:44;;;;;;;0.00;0.00;;;22.30;99.90;21.50;97057.00;;;;5091663;28;20656;-70
2022/07/21 08:34:12;;;;;;;0.00;0.00;;;22.20;99.90;21.50;97048.00;;;;5091682;28;20189;-70
2022/07/21 08:36:40;;;;;;;0.00;0.00;;;22.30;99.90;21.40;97042.00;;;;5091879;28;20193;-70
2022/07/21 08:39:08;;;;;;;0.00;0.00;;;22.10;99.90;21.40;97039.00;;;;5091496;28;20246;-70
2022/07/21 08:41:38;;;;;;;0.00;0.00;;;22.10;99.90;21.30;97028.00;;;;5091677;28;20184;-70
2022/07/21 08:44:07;;;;;;;0.00;0.00;;;22.10;99.90;21.30;97036.00;;;;5091546;28;20691;-70
2022/07/21 08:46:35;;;;;;;0.00;0.00;;;22.00;99.90;21.20;97021.00;;;;5091976;28;20192;-70
2022/07/21 08:49:05;;;;;;;0.00;0.00;;;21.90;99.90;21.10;97019.00;;;;5090997;28;20303;-70
2022/07/21 08:51:34;;;;;;;0.00;0.00;;;21.90;99.90;21.20;97024.00;;;;5083613;28;20556;-70
2022/07/21 08:54:04;;;;;;;0.00;0.00;;;21.90;99.90;21.10;97005.00;;;;5092324;28;20590;-70
2022/07/21 08:56:32;;;;;;;0.00;0.00;;;22.00;99.90;21.10;97013.00;;;;5091794;28;20205;-71
2022/07/21 08:59:02;;;;;;;0.00;0.00;;;21.90;99.90;21.10;97025.00;;;;5091009;28;20224;-70
2022/07/21 09:01:33;;;;;;;0.00;0.00;;;21.90;99.90;21.20;97027.00;;;;5073656;28;20718;-70
2022/07/21 09:04:23;;;;;;;0.00;0.00;;;21.90;99.90;21.20;97046.00;;;;5091412;28;20204;-69
2022/07/21 09:06:55;;;;;;;0.00;0.00;;;22.00;99.90;21.10;97039.00;;;;5091294;28;20588;-69
2022/07/21 09:09:25;;;;;;;0.00;0.00;;;21.80;99.90;21.10;97074.00;;;;5091109;28;20224;-69
2022/07/21 09:11:54;;;;;;;0.00;0.00;;;21.80;99.90;21.10;97088.00;;;;5091071;28;20218;-69
2022/07/21 09:14:26;;;;;;;0.00;0.00;;;21.90;99.90;21.10;97085.00;;;;5091763;28;20193;-71
2022/07/21 09:16:57;;;;;;;0.00;0.00;;;21.80;99.90;21.10;97063.00;;;;5085889;28;20194;-69
2022/07/21 09:19:37;;;;;;;0.00;0.00;;;21.90;99.90;21.20;97047.00;;;;5089569;28;20307;-69
2022/07/21 09:22:07;;;;;;;0.00;0.00;;;21.90;99.90;21.10;97050.00;;;;5091648;28;20227;-69
2022/07/21 09:24:39;;;;;;;0.00;0.00;;;21.80;99.90;21.00;97054.00;;;;5090921;28;20193;-69
2022/07/21 09:27:10;;;;;;;0.00;0.00;;;21.80;99.90;21.20;97038.00;;;;5071889;28;20201;-70
2022/07/21 09:29:43;;;;;;;0.00;0.00;;;21.80;99.90;21.10;97043.00;;;;5071862;28;20221;-69
2022/07/21 09:32:18;;;;;;;0.00;0.00;;;21.80;99.90;21.20;97063.00;;;;5071928;28;20646;-69
2022/07/21 09:34:51;;;;;;;0.00;0.00;;;21.90;99.90;21.20;97038.00;;;;5071091;28;20197;-69
2022/07/21 09:37:22;;;;;;;0.00;0.00;;;21.90;99.90;21.30;97044.00;;;;5070880;28;20194;-69
2022/07/21 09:39:53;;;;;;;0.00;0.00;;;22.00;99.90;21.40;97053.00;;;;5070828;28;20225;-70
2022/07/21 09:42:26;;;;;;;0.00;0.00;;;22.10;99.90;21.60;97048.00;;;;5072073;28;20294;-69
2022/07/21 09:44:58;;;;;;;0.00;0.00;;;22.30;99.90;226.50;231333.00;;;;5070859;28;20213;-70
2022/07/21 09:47:30;;;;;;;0.00;0.00;;;22.40;99.90;226.50;231333.00;;;;5072310;28;20194;-70
2022/07/21 09:50:01;;;;;;;0.00;0.00;;;22.60;99.90;226.50;231333.00;;;;5090820;28;20216;-70
2022/07/21 09:52:55;;;;;;;0.00;0.00;;;22.80;99.90;226.50;231333.00;;;;5070483;28;20665;-70
2022/07/21 09:55:24;;;;;;;0.00;0.00;;;22.80;99.90;226.50;231333.00;;;;5070924;28;20208;-69
2022/07/21 09:57:52;;;;;;;0.00;0.00;;;23.00;99.90;226.50;231333.00;;;;5071528;28;20224;-71
2022/07/21 10:00:20;;;;;;;0.00;0.00;;;23.10;99.90;226.50;231333.00;;;;5074842;28;20213;-70
2022/07/21 10:02:49;;;;;;;0.00;0.00;;;23.40;99.90;226.50;231333.00;;;;5074715;28;20190;-69
2022/07/21 10:05:22;;;;;;;0.00;0.00;;;23.50;99.90;226.50;231333.00;;;;5074944;28;20311;-70
2022/07/21 10:08:02;;;;;;;0.00;0.00;;;23.40;99.90;226.50;231333.00;;;;5078549;28;20208;-70
2022/07/21 10:10:34;;;;;;;0.00;0.00;;;23.50;99.90;226.50;231333.00;;;;5076682;28;20232;-70
2022/07/21 10:13:22;;;;;;;0.00;0.00;;;23.60;99.90;226.50;231333.00;;;;5077572;28;20200;-69
2022/07/21 10:15:51;;;;;;;0.00;0.00;;;23.60;99.90;226.50;231333.00;;;;5076388;28;20234;-70
2022/07/21 10:18:25;;;;;;;0.00;0.00;;;23.60;99.90;226.50;231333.00;;;;5084142;28;20588;-70
2022/07/21 10:21:02;;;;;;;0.00;0.00;;;23.50;99.90;226.50;231333.00;;;;5095171;28;20647;-69
2022/07/21 10:23:40;;;;;;;0.00;0.00;;;23.60;99.90;226.50;231333.00;;;;5095985;28;20231;-69
2022/07/21 10:26:10;;;;;;;0.00;0.00;;;23.50;99.90;226.50;231333.00;;;;5100434;28;20189;-69
2022/07/21 10:28:40;;;;;;;0.00;0.00;;;23.50;99.90;226.50;231333.00;;;;5101405;28;20184;-69
2022/07/21 10:31:19;;;;;;;0.00;0.00;;;23.50;99.90;226.50;231333.00;;;;5101412;28;20217;-69
2022/07/21 10:34:01;;;;;;;0.00;0.00;;;23.50;99.90;226.50;231333.00;;;;5100965;28;20192;-71
2022/07/21 10:36:47;;;;;;;0.00;0.00;;;23.50;99.90;226.50;231333.00;;;;5105967;28;20196;-69
2022/07/21 10:39:26;;;;;;;0.00;0.00;;;23.50;99.90;226.50;231333.00;;;;5101010;28;20700;-69
2022/07/21 10:41:59;;;;;;;0.00;0.00;;;23.20;99.90;226.50;231333.00;;;;5095064;28;20193;-70
2022/07/21 10:44:45;;;;;;;0.00;0.00;;;23.20;99.90;226.50;231333.00;;;;5096291;28;20184;-70
2022/07/21 10:47:18;;;;;;;0.00;0.00;;;23.20;99.90;226.50;231333.00;;;;5095128;28;20193;-72
2022/07/21 10:49:51;;;;;;;0.00;0.00;;;23.40;99.90;226.50;231333.00;;;;5087453;28;20213;-69
2022/07/21 10:53:02;;;;;;;0.00;0.00;;;23.30;99.90;226.50;231333.00;;;;5095394;28;20284;-69
2022/07/21 10:55:32;;;;;;;0.00;0.00;;;23.30;99.90;226.50;231333.00;;;;5095797;28;20200;-71
2022/07/21 10:58:24;;;;;;;0.00;0.00;;;23.30;99.90;226.50;231333.00;;;;5083562;28;20665;-70
2022/07/21 11:00:54;;;;;;;0.00;0.00;;;23.40;99.90;226.50;231333.00;;;;5077149;28;20231;-70
2022/07/21 11:03:26;;;;;;;0.00;0.00;;;23.50;99.90;226.50;231333.00;;;;5056209;28;20201;-71